Time;durP1;ratioP1;P1;durP2;ratioP2;P2;SDS_P1;SDS_P2;PMS_P1;PMS_P2;Temp;Humidity;BMP_temperature;BMP_pressure;BME280_temperature;BME280_humidity;BME280_pressure;Samples;Min_cycle;Max_cycle;Signal;HPM_P1;HPM_P2
2024/01/26 00:01:02;;;;;;;16.75;4.03;;;;;;;5.05;100.00;101812.09;6098959;28;20052;-70
2024/01/26 00:04:00;;;;;;;20.20;4.15;;;;;;;5.06;100.00;101799.78;6096841;28;20039;-70
2024/01/26 00:06:56;;;;;;;13.15;2.97;;;;;;;5.11;100.00;101813.53;6096954;28;20094;-71
2024/01/26 00:09:51;;;;;;;18.25;4.18;;;;;;;5.06;100.00;101805.88;6099691;28;20028;-70
2024/01/26 00:12:46;;;;;;;10.95;3.22;;;;;;;5.06;100.00;101811.13;6098777;28;20426;-70
2024/01/26 00:15:46;;;;;;;17.77;3.72;;;;;;;5.11;100.00;101816.16;6098693;28;20036;-71
2024/01/26 00:18:45;;;;;;;13.18;2.90;;;;;;;5.10;100.00;101812.69;6097640;28;20029;-70
2024/01/26 00:21:40;;;;;;;12.05;3.60;;;;;;;5.12;100.00;101805.56;6097634;28;20059;-70
2024/01/26 00:24:36;;;;;;;10.98;3.55;;;;;;;5.20;100.00;101818.28;6099609;28;20098;-70
2024/01/26 00:27:31;;;;;;;14.85;3.50;;;;;;;5.15;100.00;101810.66;6098592;28;20052;-70
2024/01/26 00:30:27;;;;;;;12.30;3.10;;;;;;;5.14;100.00;101808.09;6096687;28;20029;-70
2024/01/26 00:33:22;;;;;;;15.50;3.97;;;;;;;5.06;100.00;101794.50;6098293;28;20032;-70
2024/01/26 00:36:18;;;;;;;14.52;2.70;;;;;;;5.15;100.00;101794.03;6098098;28;20020;-70
2024/01/26 00:39:16;;;;;;;10.05;2.92;;;;;;;5.22;100.00;101788.34;6098337;28;20013;-70
2024/01/26 00:42:12;;;;;;;12.68;3.92;;;;;;;5.26;100.00;101781.13;6101213;28;20035;-71
2024/01/26 00:45:08;;;;;;;10.87;2.87;;;;;;;5.36;100.00;101793.66;6099160;28;20025;-71
2024/01/26 00:48:03;;;;;;;18.05;3.25;;;;;;;5.42;100.00;101792.47;6098074;28;20039;-71
2024/01/26 00:50:59;;;;;;;14.25;3.30;;;;;;;5.44;100.00;101793.22;6096659;28;20388;-71
2024/01/26 00:53:54;;;;;;;13.73;2.80;;;;;;;5.52;100.00;101788.38;6098163;28;20364;-71
2024/01/26 00:56:49;;;;;;;10.70;2.90;;;;;;;5.49;100.00;101778.03;6096733;28;20021;-72
2024/01/26 00:59:45;;;;;;;20.40;3.50;;;;;;;5.42;100.00;101776.69;6098561;28;20032;-72
2024/01/26 01:02:44;;;;;;;8.93;2.65;;;;;;;5.33;100.00;101774.56;6095263;28;20469;-71
2024/01/26 01:05:42;;;;;;;15.88;3.33;;;;;;;5.21;100.00;101772.66;6096339;28;20021;-70
2024/01/26 01:08:38;;;;;;;10.80;2.70;;;;;;;5.13;100.00;101774.88;6097743;28;20028;-70
2024/01/26 01:11:33;;;;;;;11.48;2.80;;;;;;;5.14;100.00;101774.75;6098291;28;20049;-69
2024/01/26 01:14:30;;;;;;;14.10;2.95;;;;;;;5.05;100.00;101777.94;6096897;28;20367;-71
2024/01/26 01:17:26;;;;;;;9.20;2.30;;;;;;;5.05;100.00;101766.56;6095978;28;20498;-70
2024/01/26 01:20:21;;;;;;;13.77;2.95;;;;;;;5.06;100.00;101757.72;6097089;28;20029;-70
2024/01/26 01:23:17;;;;;;;13.25;3.05;;;;;;;5.11;100.00;101766.22;6096704;28;20029;-70
2024/01/26 01:26:12;;;;;;;15.07;3.23;;;;;;;5.09;100.00;101762.81;6097280;28;20029;-72
2024/01/26 01:29:08;;;;;;;13.02;2.58;;;;;;;5.06;100.00;101755.94;6097501;28;20017;-70
2024/01/26 01:32:04;;;;;;;12.65;3.75;;;;;;;5.06;100.00;101748.06;6097064;28;20033;-70
2024/01/26 01:35:00;;;;;;;12.75;3.22;;;;;;;5.01;100.00;101744.84;6096361;28;20035;-70
2024/01/26 01:37:55;;;;;;;13.43;2.88;;;;;;;5.09;100.00;101736.53;6100165;28;20418;-70
2024/01/26 01:40:51;;;;;;;13.73;3.25;;;;;;;5.19;100.00;101738.53;6101545;28;20396;-70
2024/01/26 01:43:56;;;;;;;12.70;2.83;;;;;;;5.30;100.00;101736.16;6101803;28;20032;-71
2024/01/26 01:46:51;;;;;;;18.83;3.97;;;;;;;5.35;100.00;101722.75;6083008;28;20035;-70
2024/01/26 01:49:47;;;;;;;17.83;3.93;;;;;;;5.52;100.00;101735.78;6100683;28;20025;-71
2024/01/26 01:52:45;;;;;;;9.07;2.83;;;;;;;5.56;100.00;101732.03;6100926;28;20013;-70
2024/01/26 01:55:41;;;;;;;9.43;3.20;;;;;;;5.69;100.00;101738.28;6098813;28;20036;-71
2024/01/26 01:58:37;;;;;;;12.05;2.85;;;;;;;5.70;100.00;101725.97;6101594;28;20032;-71
2024/01/26 02:01:33;;;;;;;14.57;3.10;;;;;;;5.78;100.00;101721.97;6100343;28;20044;-71
2024/01/26 02:04:28;;;;;;;22.17;3.53;;;;;;;5.72;100.00;101717.06;6101076;28;20460;-70
2024/01/26 02:07:24;;;;;;;15.77;4.43;;;;;;;5.75;100.00;101713.41;6098889;28;20264;-71
2024/01/26 02:10:20;;;;;;;15.10;3.22;;;;;;;5.78;100.00;101708.81;6096132;28;20044;-70
2024/01/26 02:13:16;;;;;;;15.35;3.20;;;;;;;5.90;100.00;101721.25;6098890;28;20020;-70
2024/01/26 02:16:11;;;;;;;16.08;4.22;;;;;;;5.84;100.00;101708.41;6100036;28;20039;-69
2024/01/26 02:19:06;;;;;;;23.17;3.20;;;;;;;5.90;100.00;101713.34;6099310;28;20108;-71
2024/01/26 02:22:03;;;;;;;14.97;3.00;;;;;;;5.91;100.00;101717.69;6100370;28;20039;-70
2024/01/26 02:25:00;;;;;;;14.40;3.53;;;;;;;5.97;100.00;101712.06;6099536;28;20017;-70
2024/01/26 02:27:55;;;;;;;16.30;3.80;;;;;;;5.97;100.00;101704.16;6098977;28;20110;-70
2024/01/26 02:30:50;;;;;;;13.30;3.53;;;;;;;5.95;100.00;101697.31;6099708;28;20021;-70
2024/01/26 02:33:46;;;;;;;11.20;3.10;;;;;;;5.95;100.00;101687.59;6099262;28;20025;-69
2024/01/26 02:36:41;;;;;;;11.30;3.80;;;;;;;5.97;100.00;101692.78;6099617;28;20614;-69
2024/01/26 02:39:37;;;;;;;18.27;3.10;;;;;;;6.01;100.00;101696.91;6099176;28;20103;-70
2024/01/26 02:42:32;;;;;;;11.98;3.13;;;;;;;6.00;100.00;101692.59;6099749;28;20025;-69
2024/01/26 02:45:29;;;;;;;19.77;4.07;;;;;;;5.98;100.00;101697.94;6095562;28;20025;-70
2024/01/26 02:48:24;;;;;;;16.38;4.00;;;;;;;5.88;100.00;101678.38;6099123;28;20017;-70
2024/01/26 02:51:20;;;;;;;20.10;3.83;;;;;;;5.88;100.00;101685.44;6098754;28;20533;-70
2024/01/26 02:54:15;;;;;;;20.03;4.00;;;;;;;5.80;100.00;101671.84;6099954;28;20260;-68
2024/01/26 02:57:10;;;;;;;16.07;3.60;;;;;;;5.82;100.00;101664.72;6106501;28;20032;-69
2024/01/26 03:00:07;;;;;;;13.52;3.75;;;;;;;5.84;100.00;101671.56;6098084;28;20427;-69
2024/01/26 03:03:03;;;;;;;14.02;3.80;;;;;;;5.75;100.00;101658.97;6097953;28;20039;-70
2024/01/26 03:05:58;;;;;;;18.40;4.07;;;;;;;5.81;100.00;101663.88;6097690;28;20025;-70
2024/01/26 03:08:53;;;;;;;15.65;3.20;;;;;;;5.74;100.00;101649.38;6097092;28;20033;-68
2024/01/26 03:11:49;;;;;;;22.70;4.30;;;;;;;5.74;100.00;101657.28;6118811;28;20028;-70
2024/01/26 03:14:44;;;;;;;10.57;3.33;;;;;;;5.78;100.00;101664.06;6109001;28;20107;-69
2024/01/26 03:17:39;;;;;;;19.53;3.90;;;;;;;5.77;100.00;101667.63;6108537;28;20025;-69
2024/01/26 03:20:35;;;;;;;24.57;4.17;;;;;;;5.73;100.00;101647.72;6109040;28;20024;-69
2024/01/26 03:23:30;;;;;;;17.00;3.73;;;;;;;5.76;100.00;101649.31;6104063;28;20034;-70
2024/01/26 03:26:25;;;;;;;19.03;4.43;;;;;;;5.82;100.00;101651.56;6116322;28;20021;-69
2024/01/26 03:29:21;;;;;;;21.17;4.73;;;;;;;5.89;100.00;101651.16;6106451;28;20033;-69
2024/01/26 03:32:16;;;;;;;14.18;3.83;;;;;;;5.85;100.00;101636.47;6116530;28;20024;-69
2024/01/26 03:35:11;;;;;;;12.50;3.43;;;;;;;5.87;100.00;101631.13;6112344;28;20036;-69
2024/01/26 03:38:07;;;;;;;17.33;3.87;;;;;;;5.93;100.00;101639.47;6110133;28;20049;-70
2024/01/26 03:41:02;;;;;;;14.00;3.70;;;;;;;5.91;100.00;101633.47;6099619;28;20482;-70
2024/01/26 03:43:57;;;;;;;14.48;4.15;;;;;;;5.92;100.00;101621.16;6116272;28;20040;-69
2024/01/26 03:46:53;;;;;;;14.70;3.67;;;;;;;5.99;100.00;101631.22;6108286;28;20464;-69
2024/01/26 03:49:48;;;;;;;15.55;3.95;;;;;;;5.97;100.00;101624.34;6113107;28;20021;-69
2024/01/26 03:52:44;;;;;;;19.70;4.30;;;;;;;5.94;100.00;101616.63;6112000;28;20098;-70
2024/01/26 03:55:39;;;;;;;10.33;3.50;;;;;;;6.02;100.00;101627.53;6105292;28;20025;-68
2024/01/26 03:58:34;;;;;;;16.07;3.53;;;;;;;6.00;100.00;101616.25;6116186;28;20028;-70
2024/01/26 04:01:29;;;;;;;17.23;3.70;;;;;;;6.06;100.00;101607.16;6109725;28;20036;-68
2024/01/26 04:04:25;;;;;;;11.00;3.97;;;;;;;6.07;100.00;101603.53;6103088;28;20537;-68
2024/01/26 04:07:20;;;;;;;10.20;3.35;;;;;;;6.04;100.00;101595.84;6104614;28;20247;-70
2024/01/26 04:10:16;;;;;;;15.63;3.47;;;;;;;6.06;100.00;101599.25;6109431;28;20036;-70
2024/01/26 04:13:11;;;;;;;15.77;3.93;;;;;;;6.09;100.00;101596.44;6117236;28;20020;-70
2024/01/26 04:16:07;;;;;;;19.83;4.53;;;;;;;6.13;100.00;101600.53;6107543;28;20033;-68
2024/01/26 04:19:03;;;;;;;20.17;4.65;;;;;;;6.19;100.00;101606.28;6105046;28;20020;-69
2024/01/26 04:21:58;;;;;;;15.67;3.87;;;;;;;6.17;100.00;101597.59;6098379;28;20071;-69
2024/01/26 04:24:53;;;;;;;11.70;2.97;;;;;;;6.17;100.00;101588.88;6112516;28;20029;-69
2024/01/26 04:27:48;;;;;;;14.97;3.33;;;;;;;6.18;100.00;101580.88;6105197;28;20103;-70
2024/01/26 04:30:44;;;;;;;15.20;4.33;;;;;;;6.26;100.00;101583.03;6112193;28;20112;-69
2024/01/26 04:33:39;;;;;;;14.13;3.90;;;;;;;6.21;100.00;101572.78;6110809;28;20346;-70
2024/01/26 04:36:34;;;;;;;12.63;3.87;;;;;;;6.25;100.00;101576.09;6100528;28;20287;-70
2024/01/26 04:39:30;;;;;;;11.77;3.30;;;;;;;6.19;100.00;101573.84;6102334;28;20323;-71
2024/01/26 04:42:25;;;;;;;15.93;4.13;;;;;;;6.18;100.00;101578.25;6104864;28;20032;-71
2024/01/26 04:45:20;;;;;;;14.60;3.40;;;;;;;6.19;100.00;101579.09;6111186;28;20059;-70
2024/01/26 04:48:16;;;;;;;14.50;4.50;;;;;;;6.15;100.00;101564.41;6093231;28;20037;-71
2024/01/26 04:51:11;;;;;;;15.13;3.67;;;;;;;6.17;100.00;101570.47;6112711;28;20021;-69
2024/01/26 04:54:06;;;;;;;17.00;4.27;;;;;;;6.10;100.00;101558.59;6102772;28;20051;-69
2024/01/26 04:57:02;;;;;;;10.27;4.23;;;;;;;6.13;100.00;101558.41;6108622;28;20033;-69
2024/01/26 04:59:57;;;;;;;14.45;3.55;;;;;;;6.07;100.00;101545.63;6114828;28;20024;-70
2024/01/26 05:02:52;;;;;;;14.47;4.33;;;;;;;6.09;100.00;101541.13;6101306;28;20074;-70
2024/01/26 05:05:48;;;;;;;13.17;3.83;;;;;;;6.14;100.00;101539.06;6105915;28;20016;-70
2024/01/26 05:08:43;;;;;;;15.83;4.03;;;;;;;6.14;100.00;101554.84;6101736;28;20284;-70
2024/01/26 05:11:38;;;;;;;12.63;4.32;;;;;;;6.12;100.00;101535.66;6120429;28;20040;-70
2024/01/26 05:14:37;;;;;;;19.97;5.13;;;;;;;6.08;100.00;101534.16;6108401;28;20463;-70
2024/01/26 05:17:33;;;;;;;21.90;5.68;;;;;;;6.06;100.00;101525.53;6110872;28;20032;-69
2024/01/26 05:20:28;;;;;;;14.88;5.22;;;;;;;6.12;100.00;101525.13;6110092;28;20032;-70
2024/01/26 05:23:23;;;;;;;18.73;5.75;;;;;;;6.03;100.00;101517.81;6116920;28;20056;-70
2024/01/26 05:26:19;;;;;;;17.17;4.87;;;;;;;6.02;100.00;101506.44;6108381;28;20783;-69
2024/01/26 05:29:16;;;;;;;13.97;4.83;;;;;;;6.07;100.00;101511.41;6109625;28;20021;-70
2024/01/26 05:32:11;;;;;;;19.00;5.18;;;;;;;6.10;100.00;101508.56;6104210;28;20284;-69
2024/01/26 05:35:06;;;;;;;17.57;5.37;;;;;;;6.07;100.00;101501.72;6104007;28;20079;-69
2024/01/26 05:38:02;;;;;;;17.50;4.22;;;;;;;6.08;100.00;101500.78;6100542;28;20112;-70
2024/01/26 05:40:57;;;;;;;17.33;4.93;;;;;;;6.11;100.00;101497.13;6111378;28;20035;-70
2024/01/26 05:43:53;;;;;;;13.87;5.00;;;;;;;6.16;100.00;101492.41;6110549;28;20117;-69
2024/01/26 05:46:48;;;;;;;12.93;3.70;;;;;;;6.14;100.00;101475.84;6109762;28;20032;-70
2024/01/26 05:49:44;;;;;;;12.30;4.18;;;;;;;6.20;100.00;101475.44;6107154;28;20515;-70
2024/01/26 05:52:40;;;;;;;15.27;4.43;;;;;;;6.19;100.00;101464.09;6110316;28;20052;-69
2024/01/26 05:55:36;;;;;;;21.23;4.00;;;;;;;6.26;100.00;101464.50;6108840;28;20662;-68
2024/01/26 05:58:32;;;;;;;11.85;3.85;;;;;;;6.28;100.00;101452.06;6114602;28;20028;-69
2024/01/26 06:01:27;;;;;;;17.02;4.45;;;;;;;6.34;100.00;101452.53;6110197;28;20036;-70
2024/01/26 06:04:22;;;;;;;19.60;4.17;;;;;;;6.34;100.00;101442.00;6113012;28;20029;-70
2024/01/26 06:07:18;;;;;;;17.50;4.80;;;;;;;6.36;100.00;101442.72;6110909;28;20096;-70
2024/01/26 06:10:13;;;;;;;14.93;5.03;;;;;;;6.33;100.00;101418.41;6109429;28;20138;-70
2024/01/26 06:13:09;;;;;;;14.70;4.70;;;;;;;6.36;100.00;101418.22;6113713;28;20356;-69
2024/01/26 06:16:05;;;;;;;9.73;4.10;;;;;;;6.42;100.00;101420.41;6102554;28;20314;-68
2024/01/26 06:19:01;;;;;;;15.65;4.60;;;;;;;6.43;100.00;101409.78;6114193;28;20028;-70
2024/01/26 06:21:56;;;;;;;15.70;4.90;;;;;;;6.49;100.00;101398.00;6108544;28;20024;-69
2024/01/26 06:24:51;;;;;;;11.73;4.63;;;;;;;6.50;100.00;101386.50;6109429;28;20051;-69
2024/01/26 06:27:47;;;;;;;11.77;4.40;;;;;;;6.55;100.00;101393.16;6102246;28;20512;-71
2024/01/26 06:30:42;;;;;;;14.47;4.77;;;;;;;6.63;100.00;101392.66;6110966;28;20029;-70
2024/01/26 06:33:37;;;;;;;15.07;4.03;;;;;;;6.59;100.00;101377.97;6116585;28;20017;-69
2024/01/26 06:36:32;;;;;;;21.17;4.93;;;;;;;6.58;100.00;101371.00;6112856;28;20291;-70
2024/01/26 06:39:28;;;;;;;13.97;4.37;;;;;;;6.51;100.00;101369.75;6114286;28;20036;-71
2024/01/26 06:42:25;;;;;;;11.87;4.73;;;;;;;6.54;100.00;101380.09;6112362;28;20111;-69
2024/01/26 06:45:21;;;;;;;15.02;4.35;;;;;;;6.57;100.00;101374.63;6104632;28;20074;-69
2024/01/26 06:48:16;;;;;;;10.60;4.00;;;;;;;6.55;100.00;101371.22;6107413;28;20025;-71
2024/01/26 06:51:12;;;;;;;16.33;5.07;;;;;;;6.63;100.00;101366.31;6101213;28;20071;-70
2024/01/26 06:54:08;;;;;;;10.83;4.00;;;;;;;6.49;100.00;101348.78;6101968;28;20264;-71
2024/01/26 06:57:05;;;;;;;13.32;4.30;;;;;;;6.69;100.00;101379.03;6098745;28;20033;-72
2024/01/26 07:00:03;;;;;;;12.10;4.13;;;;;;;6.75;100.00;101389.16;6094130;28;20032;-72
2024/01/26 07:03:02;;;;;;;14.98;4.53;;;;;;;6.77;100.00;101391.69;6098392;28;20082;-71
2024/01/26 07:05:58;;;;;;;14.88;4.68;;;;;;;6.77;100.00;101399.59;6097223;28;20067;-71
2024/01/26 07:08:53;;;;;;;10.87;4.70;;;;;;;6.84;100.00;101391.19;6110817;28;20064;-70
2024/01/26 07:11:57;;;;;;;10.90;4.30;;;;;;;6.95;100.00;101399.19;6115149;28;20745;-71
2024/01/26 07:14:54;;;;;;;10.68;3.80;;;;;;;6.97;100.00;101388.53;6112052;28;20279;-71
2024/01/26 07:17:50;;;;;;;13.50;4.30;;;;;;;7.06;100.00;101387.91;6108731;28;20025;-71
2024/01/26 07:20:45;;;;;;;7.50;3.60;;;;;;;7.17;100.00;101386.16;6116489;28;20020;-71
2024/01/26 07:23:41;;;;;;;10.07;3.65;;;;;;;7.26;100.00;101387.31;6109864;28;20371;-70
2024/01/26 07:26:39;;;;;;;9.05;3.08;;;;;;;7.28;100.00;101379.31;6112650;28;20036;-71
2024/01/26 07:29:34;;;;;;;9.20;3.10;;;;;;;7.27;100.00;101364.44;6109118;28;20074;-71
2024/01/26 07:32:29;;;;;;;7.07;2.80;;;;;;;7.37;100.00;101354.91;6102454;28;20025;-71
2024/01/26 07:35:25;;;;;;;6.47;2.90;;;;;;;7.52;100.00;101359.09;6094299;28;20074;-70
2024/01/26 07:38:20;;;;;;;8.25;2.90;;;;;;;7.48;100.00;101336.50;6106198;28;20025;-70
2024/01/26 07:41:15;;;;;;;7.37;2.73;;;;;;;7.53;100.00;101343.13;6114249;28;20476;-71
2024/01/26 07:44:11;;;;;;;9.67;2.70;;;;;;;7.67;100.00;101337.72;6110039;28;20258;-70
2024/01/26 07:47:06;;;;;;;8.40;2.73;;;;;;;7.67;100.00;101327.16;6111173;28;20282;-71
2024/01/26 07:50:02;;;;;;;7.73;3.00;;;;;;;7.73;100.00;101315.31;6109445;28;20479;-70
2024/01/26 07:52:58;;;;;;;6.03;2.45;;;;;;;7.74;100.00;101301.16;6099936;28;20058;-70
2024/01/26 07:55:53;;;;;;;7.23;3.13;;;;;;;7.75;100.00;101292.25;6113270;28;20098;-72
2024/01/26 07:58:54;;;;;;;7.40;2.87;;;;;;;7.82;100.00;101288.22;6110483;28;20522;-71
2024/01/26 08:01:55;;;;;;;6.72;2.90;;;;;;;7.87;100.00;101283.44;6117591;28;20069;-71
2024/01/26 08:04:53;;;;;;;8.05;2.42;;;;;;;7.91;100.00;101286.69;6107314;28;20429;-71
2024/01/26 08:07:48;;;;;;;6.35;3.45;;;;;;;7.94;100.00;101276.72;6109440;28;20637;-71
2024/01/26 08:10:44;;;;;;;7.77;3.60;;;;;;;7.90;100.00;101264.72;6101229;28;20024;-72
2024/01/26 08:13:39;;;;;;;8.98;3.28;;;;;;;7.92;100.00;101246.97;6114427;28;20037;-70
2024/01/26 08:16:35;;;;;;;9.37;3.37;;;;;;;8.00;100.00;101225.25;6116428;28;20035;-71
2024/01/26 08:19:31;;;;;;;11.02;4.32;;;;;;;8.07;100.00;101224.66;6111958;28;20317;-71
2024/01/26 08:22:26;;;;;;;10.48;3.97;;;;;;;8.16;100.00;101225.75;6101801;28;20044;-70
2024/01/26 08:25:24;;;;;;;7.60;3.28;;;;;;;8.24;100.00;101210.16;6090658;28;20029;-71
2024/01/26 08:28:19;;;;;;;8.82;3.35;;;;;;;8.30;100.00;101212.38;6108179;28;20264;-72
2024/01/26 08:31:14;;;;;;;7.18;3.22;;;;;;;8.42;100.00;101224.63;6096048;28;20020;-70
2024/01/26 08:34:10;;;;;;;6.55;2.70;;;;;;;8.49;100.00;101219.69;6113849;28;20070;-71
2024/01/26 08:37:05;;;;;;;8.90;2.73;;;;;;;8.61;100.00;101218.75;6117261;28;20099;-70
2024/01/26 08:40:00;;;;;;;8.03;3.27;;;;;;;8.61;100.00;101208.16;6097388;28;20029;-71
2024/01/26 08:42:56;;;;;;;10.20;3.13;;;;;;;8.67;100.00;101216.44;6101027;28;20021;-71
2024/01/26 08:45:51;;;;;;;7.43;3.20;;;;;;;8.68;100.00;101206.72;6112410;28;20035;-72
2024/01/26 08:48:46;;;;;;;7.90;3.03;;;;;;;8.78;100.00;101199.72;6103454;28;20278;-71
2024/01/26 08:51:42;;;;;;;8.97;3.10;;;;;;;8.81;100.00;101188.91;6109314;28;20266;-72
2024/01/26 08:54:37;;;;;;;7.82;2.97;;;;;;;8.81;100.00;101183.59;6112043;28;20032;-71
2024/01/26 08:57:33;;;;;;;6.75;3.20;;;;;;;8.77;100.00;101174.25;6108168;28;20405;-71
2024/01/26 09:00:28;;;;;;;6.40;2.47;;;;;;;8.83;100.00;101171.13;6106465;28;20024;-70
2024/01/26 09:03:23;;;;;;;6.50;3.00;;;;;;;8.85;100.00;101174.47;6115375;28;20075;-70
2024/01/26 09:06:19;;;;;;;7.75;3.25;;;;;;;8.75;100.00;101158.50;6101308;28;20266;-71
2024/01/26 09:09:15;;;;;;;6.38;2.80;;;;;;;8.78;100.00;101160.06;6111057;28;20032;-70
2024/01/26 09:12:10;;;;;;;7.15;3.17;;;;;;;8.72;100.00;101144.72;6101627;28;20074;-71
2024/01/26 09:15:06;;;;;;;9.63;3.47;;;;;;;8.69;100.00;101137.03;6106469;28;20032;-72
2024/01/26 09:18:01;;;;;;;7.47;3.03;;;;;;;8.71;100.00;101132.44;6096584;28;20362;-70
2024/01/26 09:20:57;;;;;;;6.43;3.10;;;;;;;8.64;100.00;101140.00;6108113;28;20538;-70
2024/01/26 09:23:52;;;;;;;6.90;2.67;;;;;;;8.57;100.00;101132.69;6110466;28;20029;-71
2024/01/26 09:26:49;;;;;;;5.83;2.87;;;;;;;8.51;100.00;101122.63;6104671;28;20028;-71
2024/01/26 09:29:45;;;;;;;7.53;2.88;;;;;;;8.43;100.00;101125.03;6113049;28;20050;-69
2024/01/26 09:32:40;;;;;;;8.43;3.03;;;;;;;8.34;100.00;101127.44;6100806;28;20017;-71
2024/01/26 09:35:35;;;;;;;6.10;2.97;;;;;;;8.34;100.00;101130.09;6105576;28;20045;-72
2024/01/26 09:38:31;;;;;;;11.00;4.27;;;;;;;8.29;100.00;101124.34;6106271;28;20075;-72
2024/01/26 09:41:26;;;;;;;6.37;3.40;;;;;;;8.27;100.00;101105.13;6103501;28;20036;-72
2024/01/26 09:44:22;;;;;;;7.13;3.63;;;;;;;8.24;100.00;101110.63;6102110;28;20274;-71
2024/01/26 09:47:17;;;;;;;9.23;3.55;;;;;;;8.24;100.00;101101.84;6107326;28;20524;-70
2024/01/26 09:50:14;;;;;;;9.48;3.47;;;;;;;8.26;100.00;101107.88;6106429;28;20034;-71
2024/01/26 09:53:12;;;;;;;10.93;4.13;;;;;;;8.24;100.00;101099.19;6105822;28;20109;-72
2024/01/26 09:56:08;;;;;;;8.05;3.38;;;;;;;8.22;100.00;101101.13;6106839;28;20036;-70
2024/01/26 09:59:05;;;;;;;9.98;3.75;;;;;;;8.21;100.00;101102.94;6114497;28;20029;-69
2024/01/26 10:02:01;;;;;;;10.43;4.13;;;;;;;8.17;100.00;101088.31;6118295;28;20103;-70
2024/01/26 10:04:56;;;;;;;11.63;3.70;;;;;;;8.22;100.00;101090.56;6104472;28;20489;-71
2024/01/26 10:07:51;;;;;;;8.10;3.33;;;;;;;8.16;100.00;101081.31;6097888;28;20034;-70
2024/01/26 10:10:47;;;;;;;8.03;3.57;;;;;;;8.21;100.00;101073.88;6110536;28;20040;-69
2024/01/26 10:13:42;;;;;;;10.40;3.63;;;;;;;8.23;100.00;101066.69;6114710;28;20028;-69
2024/01/26 10:16:37;;;;;;;8.63;3.93;;;;;;;8.23;100.00;101069.31;6117430;28;20107;-70
2024/01/26 10:19:34;;;;;;;8.43;3.67;;;;;;;8.18;100.00;101047.69;6113458;28;20096;-71
2024/01/26 10:22:29;;;;;;;10.55;3.47;;;;;;;8.25;100.00;101059.47;6114100;28;20032;-70
2024/01/26 10:25:25;;;;;;;9.33;3.43;;;;;;;8.22;100.00;101035.09;6097161;28;20036;-70
2024/01/26 10:28:20;;;;;;;6.00;3.10;;;;;;;8.32;100.00;101054.53;6110390;28;20013;-70
2024/01/26 10:31:15;;;;;;;8.60;3.13;;;;;;;8.30;100.00;101051.19;6120423;28;20431;-69
2024/01/26 10:34:15;;;;;;;9.70;3.03;;;;;;;8.42;100.00;101052.03;6114853;28;20263;-70
2024/01/26 10:37:12;;;;;;;7.68;3.30;;;;;;;8.37;100.00;101028.59;6116943;28;20452;-69
2024/01/26 10:40:09;;;;;;;6.43;2.92;;;;;;;8.43;100.00;101029.91;6112768;28;20032;-70
2024/01/26 10:43:04;;;;;;;7.72;3.03;;;;;;;8.46;100.00;101024.38;6105399;28;20067;-71
2024/01/26 10:46:01;;;;;;;6.13;2.58;;;;;;;8.48;100.00;101017.19;6107602;28;20028;-70
2024/01/26 10:48:57;;;;;;;4.97;2.42;;;;;;;8.56;100.00;101031.41;6110787;28;20032;-69
2024/01/26 10:51:56;;;;;;;5.88;2.85;;;;;;;8.59;100.00;101030.34;6106385;28;20043;-71
2024/01/26 10:54:52;;;;;;;4.25;2.15;;;;;;;8.63;100.00;101015.91;6099742;28;20087;-70
2024/01/26 10:57:47;;;;;;;4.13;2.05;;;;;;;8.65;100.00;100992.81;6112412;28;20024;-70
2024/01/26 11:00:43;;;;;;;5.93;2.33;;;;;;;8.68;100.00;100995.22;6113785;28;20017;-70
2024/01/26 11:03:38;;;;;;;3.40;1.40;;;;;;;8.78;100.00;100993.47;6110944;28;20108;-70
2024/01/26 11:06:34;;;;;;;3.75;1.80;;;;;;;8.83;100.00;100986.03;6110977;28;20271;-70
2024/01/26 11:09:32;;;;;;;4.97;1.50;;;;;;;8.87;100.00;100974.22;6113566;28;20025;-70
2024/01/26 11:12:29;;;;;;;3.47;1.58;;;;;;;8.89;100.00;100972.25;6112362;28;20033;-70
2024/01/26 11:15:25;;;;;;;3.90;1.80;;;;;;;8.96;100.00;100960.22;6107460;28;20529;-71
2024/01/26 11:18:25;;;;;;;2.70;1.50;;;;;;;9.03;100.00;100950.78;6102642;28;20028;-70
2024/01/26 11:21:20;;;;;;;4.05;1.40;;;;;;;9.08;100.00;100943.28;6105519;28;20103;-71
2024/01/26 11:24:18;;;;;;;3.10;1.35;;;;;;;9.18;100.00;100932.78;6114097;28;20027;-70
2024/01/26 11:27:14;;;;;;;2.53;1.10;;;;;;;9.30;100.00;100940.50;6110623;28;20032;-71
2024/01/26 11:30:28;;;;;;;2.60;1.13;;;;;;;9.45;100.00;100944.47;6114437;28;20020;-70
2024/01/26 11:33:23;;;;;;;4.05;1.17;;;;;;;9.56;100.00;100941.72;6098335;28;20113;-71
2024/01/26 11:36:19;;;;;;;4.15;1.20;;;;;;;9.58;100.00;100923.91;6117191;28;20020;-71
2024/01/26 11:39:16;;;;;;;1.55;1.00;;;;;;;9.69;100.00;100944.13;6105232;28;20120;-70
2024/01/26 11:42:11;;;;;;;1.38;0.85;;;;;;;9.65;100.00;100924.19;6109302;28;20039;-71
2024/01/26 11:45:13;;;;;;;2.58;1.00;;;;;;;9.75;100.00;100935.66;6114844;28;20025;-71
2024/01/26 11:48:09;;;;;;;3.25;1.02;;;;;;;9.71;100.00;100902.47;6102450;28;20452;-71
2024/01/26 11:51:04;;;;;;;2.83;1.05;;;;;;;9.84;100.00;100926.03;6103616;28;20031;-71
2024/01/26 11:53:59;;;;;;;3.03;1.10;;;;;;;9.91;100.00;100903.34;6099355;28;20051;-71
2024/01/26 11:56:55;;;;;;;2.07;1.07;;;;;;;9.96;100.00;100909.91;6115732;28;20017;-71
2024/01/26 11:59:51;;;;;;;1.58;1.05;;;;;;;9.95;100.00;100881.72;6109074;28;20130;-71
2024/01/26 12:02:47;;;;;;;2.90;1.10;;;;;;;10.00;100.00;100886.63;6111756;28;20166;-70
2024/01/26 12:05:43;;;;;;;3.72;1.55;;;;;;;9.93;100.00;100886.34;6110774;28;20025;-73
2024/01/26 12:08:38;;;;;;;2.88;1.13;;;;;;;9.98;100.00;100900.00;6100489;28;20035;-69
2024/01/26 12:11:34;;;;;;;2.13;1.20;;;;;;;9.93;100.00;100885.50;6116250;28;20029;-70
2024/01/26 12:14:29;;;;;;;2.03;1.15;;;;;;;9.90;100.00;100888.41;6103845;28;20029;-71
2024/01/26 12:17:24;;;;;;;2.47;1.37;;;;;;;9.88;100.00;100890.38;6106364;28;20021;-71
2024/01/26 12:20:21;;;;;;;4.90;1.30;;;;;;;9.85;100.00;100886.19;6105818;28;20345;-71
2024/01/26 12:23:19;;;;;;;2.00;1.30;;;;;;;9.77;100.00;100887.84;6097374;28;20017;-70
2024/01/26 12:26:15;;;;;;;4.43;1.60;;;;;;;9.86;100.00;100908.22;6105679;28;20471;-71
2024/01/26 12:29:10;;;;;;;4.18;2.03;;;;;;;9.78;100.00;100897.47;6103592;28;20479;-69
2024/01/26 12:32:08;;;;;;;2.83;1.77;;;;;;;9.81;100.00;100915.75;6101128;28;20025;-70
2024/01/26 12:35:04;;;;;;;3.47;1.90;;;;;;;9.84;100.00;100939.28;6102726;28;20515;-69
2024/01/26 12:37:59;;;;;;;3.67;1.52;;;;;;;9.58;100.00;100994.53;6108623;28;20021;-69
2024/01/26 12:40:56;;;;;;;1.80;0.63;;;;;;;8.90;100.00;100992.47;6111325;28;20068;-69
2024/01/26 12:43:53;;;;;;;1.50;0.60;;;;;;;8.76;100.00;100992.78;6110817;28;20101;-70
2024/01/26 12:46:48;;;;;;;3.60;0.50;;;;;;;8.80;100.00;101025.94;6111218;28;20259;-70
2024/01/26 12:49:43;;;;;;;0.80;0.37;;;;;;;8.82;100.00;101010.78;6114039;28;20009;-71
2024/01/26 12:52:39;;;;;;;1.87;0.60;;;;;;;8.84;100.00;101020.25;6108548;28;20021;-70
2024/01/26 12:55:34;;;;;;;0.82;0.28;;;;;;;8.72;100.00;101000.16;6111011;28;20012;-70
2024/01/26 12:58:30;;;;;;;1.43;0.30;;;;;;;8.66;100.00;101029.72;6098600;28;20040;-70
2024/01/26 13:01:25;;;;;;;0.28;0.20;;;;;;;8.49;100.00;101018.84;6115937;28;20533;-71
2024/01/26 13:04:20;;;;;;;0.30;0.30;;;;;;;8.32;100.00;101031.63;6117199;28;20368;-72
2024/01/26 13:07:16;;;;;;;2.80;0.80;;;;;;;8.08;100.00;101036.19;6111782;28;20017;-71
2024/01/26 13:10:12;;;;;;;1.90;0.65;;;;;;;8.05;100.00;101057.56;6109995;28;20267;-72
2024/01/26 13:13:07;;;;;;;1.98;0.20;;;;;;;7.98;100.00;101043.19;6109026;28;20064;-71
2024/01/26 13:16:02;;;;;;;0.80;0.40;;;;;;;8.09;100.00;101042.31;6102937;28;20029;-71
2024/01/26 13:18:58;;;;;;;1.23;0.40;;;;;;;8.24;100.00;101063.06;6115309;28;20116;-71
2024/01/26 13:21:53;;;;;;;2.33;0.40;;;;;;;8.21;100.00;101073.88;6112702;28;20021;-71
2024/01/26 13:24:48;;;;;;;0.53;0.30;;;;;;;8.16;100.00;101065.47;6105833;28;20100;-70
2024/01/26 13:27:44;;;;;;;0.80;0.30;;;;;;;8.25;100.00;101083.25;6101689;28;20060;-70
2024/01/26 13:30:39;;;;;;;2.40;0.40;;;;;;;8.29;100.00;101082.06;6116956;28;20649;-71
2024/01/26 13:33:35;;;;;;;1.67;0.47;;;;;;;8.29;100.00;101095.25;6096641;28;20086;-70